LIBN/LCC METAR and TAF weather

Enter ICAO airport designator
Station Type Date Time Source
LIBN METAR 2020/07/06 19:55 UTC NOAA

LIBN 061955Z 34007KT CAVOK 24/22 Q1006 RMK SKC VIS MIN 9999 WIND THR14 34006KT WIND THR32 34007KT BLU


Station Type Date Time Source
LIBN Decoded METAR 2020/07/06 19:55 UTC NOAA

Lecce, Italy (LIBN) 40-14N 018-09E 61M
Jul 06, 2020 - 03:55 PM EDT / 2020.07.06 1955 UTC
Wind: from the NNW (340 degrees) at 8 MPH (7 KT):0
Visibility: greater than 7 mile(s):0
Temperature: 75 F (24 C)
Dew Point: 71 F (22 C)
Relative Humidity: 88%
Pressure (altimeter): 29.71 in. Hg (1006 hPa)
ob: LIBN 061955Z 34007KT CAVOK 24/22 Q1006 RMK SKC VIS MIN 9999 WIND THR14 34006KT WIND THR32 34007KT BLU
cycle: 20

Station Type Date Time Source
LIBN TAF 2020/06/22 12:27 UTC NOAA

TAF TAF LIBN 221100Z 2212/2224 34017KT 9999 SCT030
TEMPO 2212/2217 34017G30KT 6000 RA BKN025

Example: see airport list